Forside
METAR-TAF:

METAR-TAF

Lufthavne :

Goshen Municipal Airport

Goshen, Indiana, USA

Breddekreds: 41-31-34N, længdekreds: 085-47-12W, højde: 252 m

Aktuelle vejr

Denne rapport blev lavet for 1 time og 7 minutter siden, kl. 17:53 UTC
Vind 10 kt fra vest
Temperatur 6°C
Fugtighed 61%
Tryk 1025 hPa
Sigt: 16.1 km
skyfri

METAR: KGSH 021753Z AUTO 27010KT 10SM CLR 06/M01 A3028 RMK AO2 SLP263 T00611006 10061 21050 58001

Tid: 14:00 (19:00 UTC)


TAF: fraværende

Vejrobservationer og prognoser fra mere end 4000 lufthavne (METAR og TAF).

De gule og røde prikker repræsenterer de meteorologiske stationer.

Flyt musen over at se navnet på stationen.

Så klik over at se vejr observationer og prognoser.

At skifte det kort: Klik på de grønne knapper med et sort kors for at zoome ind; på den grønne knap med en bindestreg for at zoome ud; eller på de grønne pile for tilstødende kort.


METAR-TAF: